Time;durP1;ratioP1;P1;durP2;ratioP2;P2;SDS_P1;SDS_P2;PMS_P1;PMS_P2;Temp;Humidity;BMP_temperature;BMP_pressure;BME280_temperature;BME280_humidity;BME280_pressure;Samples;Min_cycle;Max_cycle;Signal;HPM_P1;HPM_P2
2023/10/12 00:02:21;;;;;;;14.13;10.03;;;;;;;16.41;65.86;96383.25;4972233;28;20437;-68
2023/10/12 00:04:53;;;;;;;13.60;9.57;;;;;;;16.40;65.30;96381.56;4972807;28;20436;-68
2023/10/12 00:07:33;;;;;;;15.67;10.50;;;;;;;16.44;65.52;96387.47;4973611;28;20449;-68
2023/10/12 00:12:47;;;;;;;17.83;10.63;;;;;;;16.41;65.25;96391.19;4972774;28;20439;-68
2023/10/12 00:17:46;;;;;;;17.60;10.40;;;;;;;16.50;65.24;96390.56;4973033;28;20421;-68
2023/10/12 00:20:23;;;;;;;13.90;9.60;;;;;;;16.48;65.03;96394.28;4973216;28;20420;-67
2023/10/12 00:22:49;;;;;;;10.10;9.00;;;;;;;16.49;65.52;96386.22;4973942;28;20416;-68
2023/10/12 00:25:16;;;;;;;15.67;11.03;;;;;;;16.37;65.82;96386.19;4973486;28;20405;-68
2023/10/12 00:27:42;;;;;;;17.10;9.83;;;;;;;16.26;65.52;96389.59;4973996;28;20174;-66
2023/10/12 00:30:09;;;;;;;16.47;9.80;;;;;;;16.29;65.96;96369.03;4973260;28;20906;-67
2023/10/12 00:32:34;;;;;;;17.07;10.00;;;;;;;16.19;65.68;96369.75;4973227;28;20433;-69
2023/10/12 00:34:59;;;;;;;16.27;9.10;;;;;;;16.16;65.85;96365.53;4972804;28;20424;-68
2023/10/12 00:37:25;;;;;;;16.93;12.83;;;;;;;16.19;65.80;96367.94;4973523;28;20185;-68
2023/10/12 00:42:17;;;;;;;14.20;9.83;;;;;;;16.21;65.73;96371.34;4973179;28;20656;-68
2023/10/12 00:44:43;;;;;;;12.53;9.00;;;;;;;16.22;65.86;96357.16;4972308;28;20241;-69
2023/10/12 00:47:12;;;;;;;14.23;10.87;;;;;;;16.17;65.85;96375.16;4973545;28;20464;-69
2023/10/12 00:49:41;;;;;;;18.97;11.10;;;;;;;16.17;65.94;96356.63;4973244;28;20413;-67
2023/10/12 00:52:08;;;;;;;12.60;9.50;;;;;;;16.19;65.72;96354.72;4973603;28;20811;-68
2023/10/12 00:57:03;;;;;;;12.37;9.80;;;;;;;16.04;66.33;96340.72;4973864;28;20763;-70
2023/10/12 00:59:31;;;;;;;15.93;9.80;;;;;;;16.08;66.16;96331.59;4972877;28;20527;-68
2023/10/12 01:01:59;;;;;;;12.20;9.53;;;;;;;16.05;66.64;96350.34;4972940;28;20193;-70
2023/10/12 01:04:25;;;;;;;14.00;9.50;;;;;;;16.13;66.58;96341.03;4973169;28;20417;-68
2023/10/12 01:06:51;;;;;;;12.77;9.37;;;;;;;16.18;66.26;96341.56;4973514;28;20472;-68
2023/10/12 01:09:19;;;;;;;17.93;11.00;;;;;;;15.93;66.85;96337.09;4973302;28;20496;-68
2023/10/12 01:11:57;;;;;;;20.03;11.90;;;;;;;15.92;66.86;96346.84;4971723;28;20217;-69
2023/10/12 01:14:26;;;;;;;11.87;9.87;;;;;;;15.99;66.33;96348.13;4971440;28;20452;-70
2023/10/12 01:16:58;;;;;;;13.70;10.50;;;;;;;16.00;66.24;96346.31;4971168;28;20492;-68
2023/10/12 01:19:30;;;;;;;16.13;10.77;;;;;;;16.13;66.32;96338.38;4971016;28;20427;-69
2023/10/12 01:21:55;;;;;;;12.73;10.10;;;;;;;16.04;66.39;96339.88;4970935;28;20464;-69
2023/10/12 01:24:30;;;;;;;11.33;9.67;;;;;;;16.02;66.50;96341.78;4971040;28;20417;-68
2023/10/12 01:26:56;;;;;;;17.67;10.20;;;;;;;15.96;66.63;96350.94;4968942;28;20212;-68
2023/10/12 01:29:22;;;;;;;14.10;10.20;;;;;;;15.97;66.34;96349.13;4970888;28;20448;-69
2023/10/12 01:32:38;;;;;;;16.50;10.10;;;;;;;15.95;66.57;96349.25;4970392;28;20432;-67
2023/10/12 01:34:44;;;;;;;14.80;9.83;;;;;;;15.94;66.74;96349.34;4969930;28;20964;-68
2023/10/12 01:37:22;;;;;;;13.80;9.83;;;;;;;15.85;66.64;96353.44;4971344;28;20432;-67
2023/10/12 01:39:59;;;;;;;16.37;10.20;;;;;;;15.83;66.80;96345.63;4970665;28;20408;-69
2023/10/12 01:42:35;;;;;;;18.87;9.50;;;;;;;15.87;66.98;96347.13;4970416;28;20454;-69
2023/10/12 01:45:04;;;;;;;17.90;10.57;;;;;;;15.82;67.07;96343.06;4970679;28;20927;-70
2023/10/12 01:50:07;;;;;;;18.57;8.93;;;;;;;15.92;66.52;96349.47;5148561;23;20509;-70
2023/10/12 01:52:34;;;;;;;15.27;10.03;;;;;;;15.82;66.78;96348.38;4966561;28;20432;-69
2023/10/12 01:54:59;;;;;;;12.83;10.10;;;;;;;15.80;66.43;96345.84;4967242;28;20423;-70
2023/10/12 01:57:32;;;;;;;15.33;10.90;;;;;;;15.81;66.36;96342.22;4967315;28;20420;-69
2023/10/12 01:59:58;;;;;;;12.80;8.83;;;;;;;15.73;66.97;96348.97;4967167;28;20201;-69
2023/10/12 02:02:24;;;;;;;13.73;10.37;;;;;;;15.71;66.60;96353.50;4966538;28;20431;-70
2023/10/12 02:04:51;;;;;;;12.20;9.50;;;;;;;15.68;66.77;96359.81;4960210;28;20417;-70
2023/10/12 02:07:16;;;;;;;14.30;9.27;;;;;;;15.73;66.28;96360.41;4967354;28;20295;-70
2023/10/12 02:09:44;;;;;;;12.50;9.47;;;;;;;15.71;66.62;96353.50;4967001;28;20546;-70
2023/10/12 02:12:11;;;;;;;13.87;8.90;;;;;;;15.64;66.89;96355.69;4967476;28;20260;-71
2023/10/12 02:14:40;;;;;;;20.50;9.93;;;;;;;15.61;66.70;96345.28;4968055;28;20420;-70
2023/10/12 02:17:08;;;;;;;13.13;8.97;;;;;;;15.54;67.34;96349.28;4967656;28;20645;-69
2023/10/12 02:19:44;;;;;;;15.00;9.70;;;;;;;15.60;66.99;96344.44;4967248;28;20432;-70
2023/10/12 02:22:29;;;;;;;11.73;9.27;;;;;;;15.51;66.84;96339.75;4965608;28;21119;-70
2023/10/12 02:25:08;;;;;;;13.87;8.80;;;;;;;15.49;67.25;96340.78;4948511;28;20413;-70
2023/10/12 02:27:34;;;;;;;16.17;9.33;;;;;;;15.46;66.89;96334.75;4951486;29;20479;-70
2023/10/12 02:29:59;;;;;;;12.37;8.57;;;;;;;15.40;67.17;96348.38;4951873;28;20445;-70
2023/10/12 02:32:25;;;;;;;21.90;9.60;;;;;;;15.51;66.80;96344.19;4953559;29;20221;-70
2023/10/12 02:34:59;;;;;;;13.00;8.43;;;;;;;15.49;67.10;96341.63;4951523;29;20186;-70
2023/10/12 02:37:27;;;;;;;19.80;9.57;;;;;;;15.44;67.18;96335.81;4951352;29;20174;-70
2023/10/12 02:39:54;;;;;;;14.00;9.60;;;;;;;15.54;66.56;96328.97;4950696;28;20436;-69
2023/10/12 02:42:38;;;;;;;15.43;9.13;;;;;;;15.45;67.20;96334.88;4951016;29;20859;-70
2023/10/12 02:47:41;;;;;;;15.23;8.10;;;;;;;15.37;67.11;96332.69;4952192;28;20522;-71
2023/10/12 02:52:35;;;;;;;14.20;9.50;;;;;;;15.33;67.18;96325.94;4970304;28;20946;-70
2023/10/12 02:58:46;;;;;;;13.53;8.40;;;;;;;15.36;67.14;96328.38;4969992;28;20420;-70
2023/10/12 03:00:47;;;;;;;13.77;8.00;;;;;;;15.43;67.05;96336.75;4965154;28;20453;-71
2023/10/12 03:05:47;;;;;;;12.60;8.47;;;;;;;15.28;67.60;96343.84;4969863;28;20823;-70
2023/10/12 03:08:17;;;;;;;12.07;8.37;;;;;;;15.29;67.46;96350.84;4969812;28;20928;-71
2023/10/12 03:13:35;;;;;;;13.17;8.17;;;;;;;15.17;68.05;96339.28;4970201;28;20827;-71
2023/10/12 03:16:13;;;;;;;17.27;9.20;;;;;;;15.21;68.04;96339.91;4970290;28;20419;-70
2023/10/12 03:18:39;;;;;;;17.53;8.90;;;;;;;15.22;67.62;96339.81;4969973;28;20537;-70
2023/10/12 03:21:11;;;;;;;12.80;8.97;;;;;;;15.28;67.70;96338.56;4970392;28;20492;-70
2023/10/12 03:23:40;;;;;;;17.10;8.50;;;;;;;15.37;67.48;96345.91;4970201;28;20940;-70
2023/10/12 03:28:46;;;;;;;20.73;14.50;;;;;;;15.20;67.97;96352.28;4968553;28;20452;-70
2023/10/12 03:31:35;;;;;;;17.53;9.83;;;;;;;15.18;67.99;96353.31;4973951;28;20436;-70
2023/10/12 03:34:01;;;;;;;14.47;9.50;;;;;;;15.24;67.94;96352.94;4974155;28;20405;-70
2023/10/12 03:36:32;;;;;;;18.33;9.33;;;;;;;15.17;68.22;96341.91;4969326;28;20792;-70
2023/10/12 03:41:46;;;;;;;13.70;8.63;;;;;;;15.25;68.18;96347.53;4961143;28;20511;-70
2023/10/12 03:47:04;;;;;;;18.97;9.60;;;;;;;15.24;68.32;96343.22;4962517;28;20448;-70
2023/10/12 03:51:59;;;;;;;18.43;8.83;;;;;;;15.19;68.30;96342.66;4968696;28;20409;-70
2023/10/12 03:54:32;;;;;;;13.17;9.00;;;;;;;15.23;68.46;96348.59;4968712;28;20537;-70
2023/10/12 03:57:19;;;;;;;15.83;8.97;;;;;;;15.22;68.69;96346.91;4969015;28;20409;-70
2023/10/12 03:59:52;;;;;;;13.40;9.50;;;;;;;15.19;68.76;96344.47;4969258;28;20839;-70
2023/10/12 04:02:17;;;;;;;15.30;8.67;;;;;;;15.12;68.64;96345.75;4969629;28;20914;-71
2023/10/12 04:04:59;;;;;;;14.80;9.20;;;;;;;15.12;69.15;96338.72;4969509;28;20567;-70
2023/10/12 04:07:37;;;;;;;20.80;8.97;;;;;;;15.05;69.32;96334.75;4969105;28;20204;-71
2023/10/12 04:10:14;;;;;;;19.73;9.70;;;;;;;15.22;68.57;96345.09;4972115;28;20460;-70
2023/10/12 04:12:53;;;;;;;12.33;8.30;;;;;;;15.23;68.70;96332.72;4953393;28;20428;-70
2023/10/12 04:15:34;;;;;;;17.97;9.07;;;;;;;15.14;69.14;96331.53;4967704;28;20431;-71
2023/10/12 04:18:05;;;;;;;15.30;9.90;;;;;;;15.10;69.41;96337.97;4965727;28;20432;-70
2023/10/12 04:20:33;;;;;;;15.40;8.70;;;;;;;15.09;69.63;96332.75;4972071;28;20440;-71
2023/10/12 04:23:34;;;;;;;15.33;11.47;;;;;;;15.15;68.91;96335.03;4964555;28;20420;-72
2023/10/12 04:25:58;;;;;;;19.07;9.50;;;;;;;15.02;69.37;96333.16;4964492;28;20478;-72
2023/10/12 04:28:23;;;;;;;14.33;9.80;;;;;;;14.99;69.93;96330.69;4962452;28;20427;-71
2023/10/12 04:33:24;;;;;;;15.90;8.87;;;;;;;15.02;69.94;96341.09;4958529;28;20178;-68
2023/10/12 04:38:27;;;;;;;16.33;8.80;;;;;;;15.20;68.89;96339.06;4965344;28;21136;-71
2023/10/12 04:43:38;;;;;;;14.10;9.97;;;;;;;14.82;70.56;96341.47;4966508;28;20423;-70
2023/10/12 04:48:41;;;;;;;16.47;9.80;;;;;;;14.90;70.47;96336.53;4963353;28;20796;-70
2023/10/12 04:51:07;;;;;;;20.63;9.37;;;;;;;15.09;69.73;96343.31;4956948;28;20429;-69
2023/10/12 04:53:53;;;;;;;13.93;9.40;;;;;;;15.15;69.58;96346.44;4959324;28;20854;-70
2023/10/12 04:56:23;;;;;;;13.30;8.90;;;;;;;15.17;69.36;96346.34;4961089;28;20475;-71
2023/10/12 04:59:49;;;;;;;19.23;9.97;;;;;;;15.18;69.91;96348.03;4965848;28;20440;-70
2023/10/12 05:01:51;;;;;;;21.13;9.60;;;;;;;15.09;69.73;96338.03;4974064;28;20848;-71
2023/10/12 05:04:35;;;;;;;14.57;8.83;;;;;;;14.88;70.73;96345.50;4966083;28;20428;-71
2023/10/12 05:07:53;;;;;;;22.60;10.10;;;;;;;15.05;70.42;96337.41;4954981;28;20827;-69
2023/10/12 05:09:51;;;;;;;16.20;9.20;;;;;;;15.10;69.97;96337.97;4959678;28;20444;-70
2023/10/12 05:12:18;;;;;;;14.63;10.00;;;;;;;15.19;69.83;96337.38;4963515;28;21017;-71
2023/10/12 05:14:44;;;;;;;33.87;13.60;;;;;;;15.20;69.55;96349.63;4969170;28;20213;-71
2023/10/12 05:17:09;;;;;;;20.37;11.10;;;;;;;15.22;69.75;96344.25;4955836;28;20460;-70
2023/10/12 05:19:35;;;;;;;20.23;10.40;;;;;;;15.06;70.06;96352.31;4965203;28;20202;-71
2023/10/12 05:22:00;;;;;;;16.60;10.60;;;;;;;15.13;69.86;96352.78;4964270;28;20221;-72
2023/10/12 05:24:26;;;;;;;16.30;8.67;;;;;;;15.15;69.72;96353.53;4947823;28;20671;-71
2023/10/12 05:26:56;;;;;;;33.63;10.10;;;;;;;15.82;68.83;96357.16;4964150;28;20744;-68
2023/10/12 05:32:05;;;;;;;21.10;8.13;;;;;;;16.49;67.59;96354.44;4967331;28;21066;-69
2023/10/12 05:37:16;;;;;;;29.77;10.03;;;;;;;16.21;65.73;96366.06;4965930;28;20441;-70
2023/10/12 05:39:52;;;;;;;51.47;12.10;;;;;;;15.84;67.19;96368.47;4964001;28;20834;-71
2023/10/12 05:42:22;;;;;;;20.43;9.30;;;;;;;15.54;68.28;96375.72;4967987;28;20496;-72
2023/10/12 05:44:51;;;;;;;18.30;10.10;;;;;;;15.42;68.47;96367.63;4966565;28;20419;-70
2023/10/12 05:47:29;;;;;;;14.30;9.30;;;;;;;15.31;69.33;96359.53;4968027;28;21050;-74
2023/10/12 05:49:57;;;;;;;15.00;8.87;;;;;;;15.30;69.07;96368.41;4963481;28;20452;-73
2023/10/12 05:52:24;;;;;;;18.47;9.93;;;;;;;15.38;69.07;96367.94;4964772;28;20955;-71
2023/10/12 05:54:51;;;;;;;14.13;8.93;;;;;;;15.35;68.81;96366.31;4964657;28;20440;-69
2023/10/12 05:57:19;;;;;;;12.33;9.00;;;;;;;15.37;68.98;96364.44;4966492;28;20429;-70
2023/10/12 05:59:49;;;;;;;15.00;10.40;;;;;;;15.42;68.74;96367.63;4963602;28;20440;-71
2023/10/12 06:02:17;;;;;;;20.30;8.87;;;;;;;15.29;69.23;96372.00;4963573;28;20413;-71
2023/10/12 06:04:44;;;;;;;17.10;9.70;;;;;;;15.25;69.48;96371.34;4968279;28;20424;-71
2023/10/12 06:07:10;;;;;;;23.60;9.30;;;;;;;15.30;69.24;96364.91;4968633;28;20966;-70
2023/10/12 06:09:37;;;;;;;14.93;9.90;;;;;;;14.92;70.29;96369.00;4968891;28;20425;-70
2023/10/12 06:12:06;;;;;;;16.73;9.80;;;;;;;15.01;70.37;96376.38;4967313;28;20428;-69
2023/10/12 06:14:35;;;;;;;18.30;8.97;;;;;;;15.10;69.98;96382.03;4968555;28;20974;-72
2023/10/12 06:17:07;;;;;;;22.27;9.30;;;;;;;15.22;69.84;96390.03;4968108;28;20415;-71
2023/10/12 06:19:36;;;;;;;16.20;10.43;;;;;;;15.36;69.10;96393.63;4968641;28;20729;-70
2023/10/12 06:22:24;;;;;;;18.33;10.70;;;;;;;15.54;68.50;96394.25;4968998;28;20416;-70
2023/10/12 06:24:52;;;;;;;12.40;8.83;;;;;;;15.61;68.10;96395.53;4968855;28;20496;-72
2023/10/12 06:29:48;;;;;;;17.30;8.93;;;;;;;16.40;65.36;96401.91;4970020;28;21411;-72
2023/10/12 06:32:24;;;;;;;25.23;10.50;;;;;;;16.86;63.88;96404.09;4970855;28;20421;-72
2023/10/12 06:37:49;;;;;;;14.83;10.43;;;;;;;18.54;57.92;96391.06;4971184;28;20927;-72
2023/10/12 06:51:02;;;;;;;11.83;8.70;;;;;;;17.58;60.34;96417.59;4970018;28;20428;-72
2023/10/12 06:53:35;;;;;;;15.93;8.57;;;;;;;17.28;61.47;96415.31;4970270;28;20412;-72
2023/10/12 06:58:46;;;;;;;17.23;8.30;;;;;;;17.34;61.66;96421.03;4968355;28;20522;-71
2023/10/12 07:04:12;;;;;;;10.83;7.70;;;;;;;18.48;57.89;96417.25;4949284;28;21235;-72
2023/10/12 07:06:56;;;;;;;20.30;9.40;;;;;;;19.64;54.45;96413.53;4969154;28;20465;-72
2023/10/12 07:09:46;;;;;;;22.57;7.67;;;;;;;20.28;52.03;96410.13;4969049;28;20783;-72
2023/10/12 07:12:13;;;;;;;24.90;8.40;;;;;;;19.70;53.60;96420.25;4965929;28;20472;-72
2023/10/12 07:14:46;;;;;;;21.70;8.37;;;;;;;19.14;55.32;96420.22;4967584;28;20455;-73
2023/10/12 07:17:13;;;;;;;16.60;8.40;;;;;;;18.73;56.60;96416.22;4962173;28;20725;-73
2023/10/12 07:19:47;;;;;;;16.17;7.80;;;;;;;18.67;56.83;96416.72;4967705;28;20827;-73
2023/10/12 07:22:15;;;;;;;15.53;9.53;;;;;;;18.51;57.33;96414.34;4969938;28;20463;-73
2023/10/12 07:24:42;;;;;;;12.97;9.00;;;;;;;18.25;58.40;96417.16;4970366;28;20421;-72
2023/10/12 07:27:22;;;;;;;17.33;8.93;;;;;;;19.49;55.25;96412.13;4968899;28;20464;-72
2023/10/12 07:29:51;;;;;;;20.87;9.33;;;;;;;19.93;53.44;96422.84;4968749;28;20441;-74
2023/10/12 07:32:24;;;;;;;22.50;9.53;;;;;;;20.54;51.94;96417.78;4969350;28;20421;-73
2023/10/12 07:35:06;;;;;;;14.80;9.10;;;;;;;21.60;48.88;96405.25;4969360;28;20428;-73
2023/10/12 07:37:31;;;;;;;15.53;9.23;;;;;;;21.86;48.07;96408.28;4969206;28;20417;-74
2023/10/12 07:40:12;;;;;;;14.10;8.33;;;;;;;21.63;48.41;96407.66;4968594;28;20505;-73
2023/10/12 07:42:39;;;;;;;14.03;7.50;;;;;;;21.98;47.74;96405.34;4969296;28;20178;-73
2023/10/12 07:45:06;;;;;;;10.73;7.40;;;;;;;22.62;46.46;96401.31;4968553;28;20412;-72
2023/10/12 07:47:32;;;;;;;12.03;8.40;;;;;;;22.22;47.28;96401.47;4961137;28;20523;-75
2023/10/12 07:50:06;;;;;;;15.40;8.30;;;;;;;22.15;47.19;96401.13;4975002;28;21019;-75
2023/10/12 07:55:04;;;;;;;11.00;7.53;;;;;;;22.41;46.88;96406.81;4964949;28;20413;-75
2023/10/12 07:57:29;;;;;;;11.03;7.37;;;;;;;22.67;46.37;96408.09;4969347;28;20417;-75
2023/10/12 08:02:59;;;;;;;18.73;7.20;;;;;;;22.81;45.52;96397.78;4969324;28;20256;-76
2023/10/12 08:13:14;;;;;;;9.23;7.73;;;;;;;23.65;43.34;96394.31;4956250;28;20416;-76
2023/10/12 08:15:49;;;;;;;10.10;6.10;;;;;;;23.62;43.29;96385.72;4969447;28;20409;-75
2023/10/12 08:21:10;;;;;;;11.03;5.70;;;;;;;23.77;42.33;96378.91;4969383;28;20412;-74
2023/10/12 08:23:37;;;;;;;10.20;6.63;;;;;;;23.78;42.28;96390.47;4964512;28;20471;-74
2023/10/12 08:26:03;;;;;;;36.93;8.03;;;;;;;24.21;41.67;96394.28;4952777;28;20548;-75
2023/10/12 08:28:36;;;;;;;13.43;6.30;;;;;;;24.17;41.80;96391.09;4968782;28;20838;-75
2023/10/12 08:31:05;;;;;;;9.50;6.07;;;;;;;24.37;41.15;96397.13;4969149;28;20468;-75
2023/10/12 08:33:49;;;;;;;8.70;6.30;;;;;;;24.07;42.08;96401.00;4968969;28;20408;-74
2023/10/12 08:38:52;;;;;;;12.77;6.77;;;;;;;24.64;40.89;96398.94;4968179;28;20440;-74
2023/10/12 08:43:52;;;;;;;20.27;7.53;;;;;;;24.65;40.00;96391.72;4970215;28;20431;-75
2023/10/12 08:52:04;;;;;;;12.20;6.00;;;;;;;24.74;39.54;96400.69;4968504;28;20408;-75
2023/10/12 08:54:37;;;;;;;14.10;5.47;;;;;;;24.72;39.33;96398.16;4968983;28;20440;-75
2023/10/12 08:57:19;;;;;;;8.63;5.00;;;;;;;24.07;40.77;96393.84;4969067;28;20930;-75
2023/10/12 09:00:20;;;;;;;16.93;5.10;;;;;;;24.07;40.56;96385.78;4968273;28;20475;-75
2023/10/12 09:02:49;;;;;;;11.37;5.20;;;;;;;24.08;40.61;96381.25;4969128;28;21006;-75
2023/10/12 09:05:24;;;;;;;12.30;6.33;;;;;;;23.85;41.12;96392.41;4969503;28;20417;-75
2023/10/12 09:10:49;;;;;;;12.10;5.90;;;;;;;23.63;42.14;96396.31;4969037;28;20793;-75
2023/10/12 09:13:22;;;;;;;12.33;5.50;;;;;;;24.05;41.31;96390.47;4969978;28;20595;-75
2023/10/12 09:15:54;;;;;;;13.97;6.40;;;;;;;24.33;40.77;96389.53;4971936;28;20485;-75
2023/10/12 09:18:24;;;;;;;25.50;7.10;;;;;;;24.47;41.19;96391.72;4968658;28;20941;-75
2023/10/12 09:23:47;;;;;;;9.83;5.90;;;;;;;23.76;42.09;96387.94;4971273;28;20513;-74
2023/10/12 09:33:55;;;;;;;12.37;5.43;;;;;;;23.97;41.11;96394.88;4974496;28;20437;-75
2023/10/12 09:36:22;;;;;;;12.63;6.10;;;;;;;23.86;41.37;96398.63;4976652;28;20428;-75
2023/10/12 09:38:48;;;;;;;10.10;5.73;;;;;;;23.74;41.58;96395.31;4969721;28;20534;-74
2023/10/12 09:41:14;;;;;;;19.10;6.63;;;;;;;23.88;41.18;96397.47;4968753;28;21108;-75
2023/10/12 09:43:44;;;;;;;14.03;6.80;;;;;;;23.96;41.23;96402.09;4973087;28;20192;-76
2023/10/12 09:46:13;;;;;;;15.87;6.63;;;;;;;24.07;41.03;96398.31;4973377;28;21067;-76
2023/10/12 09:48:41;;;;;;;10.10;6.37;;;;;;;23.96;40.65;96394.03;4971093;28;20951;-75
2023/10/12 09:51:15;;;;;;;15.60;6.27;;;;;;;24.17;40.76;96391.09;4970026;28;20508;-75
2023/10/12 09:53:44;;;;;;;17.20;5.60;;;;;;;24.05;40.95;96392.31;4970957;28;20842;-76
2023/10/12 09:56:15;;;;;;;21.53;6.70;;;;;;;24.27;40.47;96399.88;4952801;28;20994;-75
2023/10/12 10:07:14;;;;;;;17.60;6.03;;;;;;;24.69;40.29;96395.78;4968745;28;20666;-76
2023/10/12 10:09:48;;;;;;;9.73;5.60;;;;;;;24.27;42.80;96397.22;4968728;28;20598;-76
2023/10/12 10:12:18;;;;;;;18.13;7.17;;;;;;;24.10;43.75;96406.09;4952865;28;20433;-71
2023/10/12 10:14:47;;;;;;;16.37;6.20;;;;;;;23.98;41.87;96393.91;4969758;28;20432;-71
2023/10/12 10:17:15;;;;;;;14.07;6.10;;;;;;;24.08;43.49;96390.16;4971426;28;20440;-71
2023/10/12 10:19:51;;;;;;;13.87;6.00;;;;;;;24.38;41.50;96384.56;4971255;28;20528;-71
2023/10/12 10:22:18;;;;;;;12.70;5.30;;;;;;;24.67;40.82;96371.78;4971496;28;20944;-71
2023/10/12 10:24:51;;;;;;;10.90;5.80;;;;;;;24.90;41.31;96372.13;4953543;28;20453;-70
2023/10/12 10:27:18;;;;;;;8.43;5.60;;;;;;;24.67;40.48;96370.94;4971417;28;20941;-70
2023/10/12 10:29:56;;;;;;;10.13;5.10;;;;;;;24.48;40.23;96366.59;4970982;28;20516;-71
2023/10/12 10:32:38;;;;;;;12.40;4.90;;;;;;;24.60;40.40;96369.88;4971574;28;20415;-71
2023/10/12 10:35:13;;;;;;;10.20;5.97;;;;;;;24.58;41.71;96361.13;4971462;28;20489;-71
2023/10/12 10:37:58;;;;;;;10.63;7.13;;;;;;;24.59;39.97;96370.84;4970615;28;20398;-71
2023/10/12 10:40:48;;;;;;;9.07;5.30;;;;;;;24.52;40.65;96362.63;4971061;28;20536;-70
2023/10/12 10:43:16;;;;;;;8.87;5.80;;;;;;;24.61;39.99;96360.81;4971049;28;20409;-70
2023/10/12 10:45:56;;;;;;;13.07;5.47;;;;;;;24.40;40.61;96363.78;4970850;28;20821;-72
2023/10/12 10:48:27;;;;;;;8.03;5.17;;;;;;;24.54;42.00;96359.75;4970837;28;20413;-71
2023/10/12 10:50:53;;;;;;;6.83;5.70;;;;;;;24.39;41.08;96351.38;4971103;28;20920;-71
2023/10/12 10:53:20;;;;;;;8.77;4.83;;;;;;;24.66;40.80;96353.13;4971082;28;20421;-69
2023/10/12 10:55:47;;;;;;;15.50;5.53;;;;;;;24.74;39.91;96342.47;4970942;28;20166;-71
2023/10/12 10:58:14;;;;;;;14.87;6.80;;;;;;;24.92;39.14;96335.22;4970767;28;20440;-70
2023/10/12 11:00:45;;;;;;;10.73;5.70;;;;;;;24.94;38.27;96337.75;4953096;28;20416;-70
2023/10/12 11:03:19;;;;;;;13.70;5.80;;;;;;;24.87;38.74;96342.06;4970500;28;20420;-70
2023/10/12 11:05:46;;;;;;;9.40;5.50;;;;;;;24.98;38.93;96335.59;4970625;28;20484;-70
2023/10/12 11:08:26;;;;;;;8.77;5.03;;;;;;;24.98;38.20;96341.81;4969696;28;20509;-69
2023/10/12 11:13:34;;;;;;;8.90;5.40;;;;;;;25.14;37.84;96330.31;4961397;28;20829;-69
2023/10/12 11:16:08;;;;;;;9.00;5.50;;;;;;;25.14;37.10;96330.31;4965283;28;20959;-69
2023/10/12 11:18:38;;;;;;;16.90;7.13;;;;;;;25.22;37.32;96329.53;4967525;28;20458;-69
2023/10/12 11:21:07;;;;;;;11.27;5.70;;;;;;;25.37;36.91;96330.66;4966127;28;21336;-70
2023/10/12 11:23:32;;;;;;;13.40;5.80;;;;;;;25.35;36.72;96328.09;4968000;28;20550;-70
2023/10/12 11:26:04;;;;;;;11.73;6.50;;;;;;;25.36;37.62;96334.31;4967208;28;20436;-70
2023/10/12 11:28:30;;;;;;;10.73;5.63;;;;;;;25.46;37.36;96324.28;4968478;28;20205;-70
2023/10/12 11:31:07;;;;;;;9.07;5.10;;;;;;;25.41;37.12;96323.09;4966916;28;20931;-70
2023/10/12 11:33:47;;;;;;;16.23;6.67;;;;;;;25.50;37.22;96320.25;4964625;28;20260;-71
2023/10/12 11:36:25;;;;;;;27.63;9.37;;;;;;;25.50;37.52;96324.81;4965132;28;20439;-70
2023/10/12 11:38:58;;;;;;;16.93;7.17;;;;;;;25.46;37.32;96326.97;4967945;28;20456;-69
2023/10/12 11:41:25;;;;;;;11.03;5.53;;;;;;;25.45;37.07;96322.59;4966879;28;20451;-70
2023/10/12 11:43:53;;;;;;;11.53;6.50;;;;;;;25.32;36.81;96324.88;4966042;28;20436;-70
2023/10/12 11:46:19;;;;;;;10.90;6.27;;;;;;;25.32;37.21;96324.88;4967048;28;20559;-69
2023/10/12 11:49:01;;;;;;;15.87;6.57;;;;;;;25.40;37.38;96318.72;4966626;28;20890;-69
2023/10/12 11:51:27;;;;;;;8.37;4.70;;;;;;;25.45;37.50;96317.22;4966614;28;20947;-69
2023/10/12 11:53:53;;;;;;;13.47;6.40;;;;;;;25.47;37.60;96317.91;4966223;28;20446;-71
2023/10/12 11:56:22;;;;;;;12.90;6.80;;;;;;;25.37;37.12;96325.28;4950593;28;20205;-70
2023/10/12 11:58:54;;;;;;;12.47;6.27;;;;;;;25.31;37.29;96315.16;4965133;28;20456;-71
2023/10/12 12:01:27;;;;;;;12.37;5.40;;;;;;;25.31;37.03;96312.47;4966796;28;20425;-71
2023/10/12 12:03:54;;;;;;;21.10;7.37;;;;;;;25.42;36.98;96317.56;4966396;28;20443;-71
2023/10/12 12:06:21;;;;;;;13.67;5.30;;;;;;;25.26;36.73;96309.44;4965885;28;20526;-71
2023/10/12 12:08:48;;;;;;;11.83;5.80;;;;;;;25.14;37.55;96309.66;4965759;28;20448;-71
2023/10/12 12:11:19;;;;;;;12.77;6.30;;;;;;;25.17;37.07;96307.66;4965998;28;20860;-70
2023/10/12 12:13:53;;;;;;;10.17;6.23;;;;;;;25.08;37.54;96304.94;4963983;28;20437;-71
2023/10/12 12:16:22;;;;;;;8.90;5.37;;;;;;;25.07;37.79;96311.31;4965154;28;20433;-70
2023/10/12 12:18:54;;;;;;;11.37;5.97;;;;;;;25.00;37.36;96307.59;4965035;28;20452;-70
2023/10/12 12:21:29;;;;;;;12.63;5.70;;;;;;;24.97;38.04;96301.69;4964782;28;20433;-70
2023/10/12 12:24:21;;;;;;;18.13;5.57;;;;;;;25.01;38.52;96314.63;4965213;28;20467;-70
2023/10/12 12:26:53;;;;;;;10.43;5.43;;;;;;;24.84;38.83;96304.81;4966224;28;20468;-70
2023/10/12 12:29:25;;;;;;;9.00;5.60;;;;;;;24.85;38.67;96299.28;4961363;28;20568;-71
2023/10/12 12:31:51;;;;;;;8.17;5.50;;;;;;;24.82;38.88;96299.59;4961600;28;20989;-71
2023/10/12 12:37:04;;;;;;;8.10;5.77;;;;;;;24.70;38.72;96304.38;4965656;28;20264;-71
2023/10/12 12:39:32;;;;;;;20.23;7.23;;;;;;;24.64;38.44;96306.88;4961972;28;20459;-70
2023/10/12 12:41:58;;;;;;;20.47;6.90;;;;;;;24.51;38.51;96296.53;4961782;28;20429;-70
2023/10/12 12:44:23;;;;;;;8.67;5.47;;;;;;;24.39;39.10;96303.13;4966471;28;20433;-70
2023/10/12 12:46:48;;;;;;;13.20;5.77;;;;;;;24.32;39.24;96310.94;4965075;28;20206;-71
2023/10/12 12:49:14;;;;;;;9.90;6.30;;;;;;;24.32;39.37;96310.09;4965823;28;20287;-70
2023/10/12 12:51:39;;;;;;;10.70;6.17;;;;;;;24.23;39.47;96307.31;4948569;28;20217;-70
2023/10/12 12:54:05;;;;;;;12.17;6.57;;;;;;;24.11;38.97;96302.38;4963999;28;20587;-71
2023/10/12 12:56:30;;;;;;;11.83;6.00;;;;;;;23.95;39.67;96298.53;4965019;28;20265;-72
2023/10/12 12:58:55;;;;;;;7.43;5.43;;;;;;;23.97;39.65;96309.09;4964888;28;20201;-71
2023/10/12 13:01:23;;;;;;;8.70;5.80;;;;;;;23.90;40.02;96313.38;4961841;28;22270;-72
2023/10/12 13:03:52;;;;;;;6.33;5.17;;;;;;;23.85;40.61;96303.13;4964052;28;20217;-72
2023/10/12 13:06:17;;;;;;;13.60;6.20;;;;;;;23.83;40.73;96308.63;4964426;28;20476;-71
2023/10/12 13:08:43;;;;;;;10.33;5.90;;;;;;;23.90;41.08;96302.66;4963561;28;21177;-71
2023/10/12 13:11:12;;;;;;;9.40;6.40;;;;;;;23.92;40.86;96306.88;4966660;28;20173;-72
2023/10/12 13:13:39;;;;;;;9.13;5.33;;;;;;;23.81;40.78;96299.06;4964162;28;20622;-71
2023/10/12 13:16:05;;;;;;;11.20;5.50;;;;;;;23.77;41.33;96297.69;4967905;28;20424;-70
2023/10/12 13:18:32;;;;;;;10.63;6.20;;;;;;;23.68;41.59;96310.13;4969164;28;20463;-71
2023/10/12 13:20:59;;;;;;;7.70;5.93;;;;;;;23.62;41.84;96308.91;4949365;28;20433;-70
2023/10/12 13:23:24;;;;;;;9.23;5.70;;;;;;;23.59;41.82;96300.31;4947758;28;20425;-71
2023/10/12 13:25:50;;;;;;;11.33;6.20;;;;;;;23.56;42.37;96308.66;4964894;28;20447;-71
2023/10/12 13:28:16;;;;;;;12.20;6.93;;;;;;;23.41;42.89;96309.16;4962138;28;20279;-71
2023/10/12 13:30:43;;;;;;;14.83;6.97;;;;;;;23.41;43.12;96292.22;4957416;28;20597;-72
2023/10/12 13:33:11;;;;;;;10.83;5.93;;;;;;;23.40;41.92;96295.91;4961866;28;20815;-71
2023/10/12 13:38:09;;;;;;;10.70;6.00;;;;;;;23.20;42.29;96305.88;4965850;28;20908;-72
2023/10/12 13:40:43;;;;;;;16.33;6.03;;;;;;;23.18;42.39;96307.84;4966501;28;20807;-71
2023/10/12 13:43:18;;;;;;;11.43;6.00;;;;;;;23.07;42.63;96297.34;4964982;28;20528;-71
2023/10/12 13:45:51;;;;;;;9.77;5.60;;;;;;;23.10;42.80;96299.72;4963965;28;20872;-71
2023/10/12 13:48:22;;;;;;;10.10;7.30;;;;;;;23.05;42.78;96297.47;4965411;28;20437;-71
2023/10/12 13:51:00;;;;;;;10.50;5.77;;;;;;;22.97;43.40;96295.50;4965862;28;20451;-71
2023/10/12 13:53:29;;;;;;;9.10;5.53;;;;;;;22.94;43.50;96289.63;4963250;28;20459;-71